sensor_id;sensor_type;location;lat;lon;timestamp;P1;durP1;ratioP1;P2;durP2;ratioP2
55328;SDS011;41205;44.264;19.884;2023-07-08T00:00:20;11.48;;;6.78;;
55328;SDS011;41205;44.264;19.884;2023-07-08T00:02:47;9.38;;;6.80;;
55328;SDS011;41205;44.264;19.884;2023-07-08T00:05:13;11.85;;;6.85;;
55328;SDS011;41205;44.264;19.884;2023-07-08T00:07:40;13.02;;;7.85;;
55328;SDS011;41205;44.264;19.884;2023-07-08T00:10:11;9.07;;;6.32;;
55328;SDS011;41205;44.264;19.884;2023-07-08T00:12:40;11.07;;;6.80;;
55328;SDS011;41205;44.264;19.884;2023-07-08T00:15:07;10.55;;;6.40;;
55328;SDS011;41205;44.264;19.884;2023-07-08T00:17:33;7.88;;;6.47;;
55328;SDS011;41205;44.264;19.884;2023-07-08T00:19:59;9.18;;;6.22;;
55328;SDS011;41205;44.264;19.884;2023-07-08T00:22:25;10.85;;;6.90;;
55328;SDS011;41205;44.264;19.884;2023-07-08T00:24:50;11.57;;;7.10;;
55328;SDS011;41205;44.264;19.884;2023-07-08T00:27:17;9.48;;;6.85;;
55328;SDS011;41205;44.264;19.884;2023-07-08T00:29:42;10.60;;;6.35;;
55328;SDS011;41205;44.264;19.884;2023-07-08T00:32:14;10.13;;;6.60;;
55328;SDS011;41205;44.264;19.884;2023-07-08T00:34:40;13.23;;;7.35;;
55328;SDS011;41205;44.264;19.884;2023-07-08T00:37:09;8.73;;;7.40;;
55328;SDS011;41205;44.264;19.884;2023-07-08T00:39:36;9.43;;;6.90;;
55328;SDS011;41205;44.264;19.884;2023-07-08T00:42:06;11.27;;;7.05;;
55328;SDS011;41205;44.264;19.884;2023-07-08T00:44:43;9.95;;;7.22;;
55328;SDS011;41205;44.264;19.884;2023-07-08T00:47:10;10.43;;;6.57;;
55328;SDS011;41205;44.264;19.884;2023-07-08T00:49:40;12.52;;;6.78;;
55328;SDS011;41205;44.264;19.884;2023-07-08T00:52:16;10.00;;;6.40;;
55328;SDS011;41205;44.264;19.884;2023-07-08T00:54:51;9.40;;;7.03;;
55328;SDS011;41205;44.264;19.884;2023-07-08T00:57:18;11.05;;;7.63;;
55328;SDS011;41205;44.264;19.884;2023-07-08T00:59:47;8.05;;;6.28;;
55328;SDS011;41205;44.264;19.884;2023-07-08T01:02:20;8.38;;;5.95;;
55328;SDS011;41205;44.264;19.884;2023-07-08T01:07:16;9.82;;;6.38;;
55328;SDS011;41205;44.264;19.884;2023-07-08T01:09:46;11.82;;;6.25;;
55328;SDS011;41205;44.264;19.884;2023-07-08T01:12:18;12.75;;;6.53;;
55328;SDS011;41205;44.264;19.884;2023-07-08T01:14:48;13.18;;;7.30;;
55328;SDS011;41205;44.264;19.884;2023-07-08T01:17:18;11.55;;;7.10;;
55328;SDS011;41205;44.264;19.884;2023-07-08T01:19:45;12.52;;;6.88;;
55328;SDS011;41205;44.264;19.884;2023-07-08T01:22:11;9.05;;;7.07;;
55328;SDS011;41205;44.264;19.884;2023-07-08T01:24:38;10.50;;;6.45;;
55328;SDS011;41205;44.264;19.884;2023-07-08T01:27:07;8.68;;;6.47;;
55328;SDS011;41205;44.264;19.884;2023-07-08T01:29:35;10.40;;;6.78;;
55328;SDS011;41205;44.264;19.884;2023-07-08T01:32:01;10.80;;;6.68;;
55328;SDS011;41205;44.264;19.884;2023-07-08T01:34:31;12.82;;;7.75;;
55328;SDS011;41205;44.264;19.884;2023-07-08T01:36:58;9.07;;;5.95;;
55328;SDS011;41205;44.264;19.884;2023-07-08T01:39:27;10.05;;;7.28;;
55328;SDS011;41205;44.264;19.884;2023-07-08T01:41:53;9.90;;;6.80;;
55328;SDS011;41205;44.264;19.884;2023-07-08T01:46:55;11.90;;;7.32;;
55328;SDS011;41205;44.264;19.884;2023-07-08T01:49:27;11.38;;;6.68;;
55328;SDS011;41205;44.264;19.884;2023-07-08T01:51:53;12.13;;;6.18;;
55328;SDS011;41205;44.264;19.884;2023-07-08T01:54:20;8.98;;;6.15;;
55328;SDS011;41205;44.264;19.884;2023-07-08T01:56:46;14.50;;;6.97;;
55328;SDS011;41205;44.264;19.884;2023-07-08T01:59:11;10.65;;;6.55;;
55328;SDS011;41205;44.264;19.884;2023-07-08T02:01:37;10.70;;;7.28;;
55328;SDS011;41205;44.264;19.884;2023-07-08T02:04:03;10.05;;;7.35;;
55328;SDS011;41205;44.264;19.884;2023-07-08T02:06:29;10.27;;;7.53;;
55328;SDS011;41205;44.264;19.884;2023-07-08T02:08:54;9.10;;;6.47;;
55328;SDS011;41205;44.264;19.884;2023-07-08T02:11:23;14.68;;;7.22;;
55328;SDS011;41205;44.264;19.884;2023-07-08T02:13:49;12.30;;;7.07;;
55328;SDS011;41205;44.264;19.884;2023-07-08T02:16:15;12.43;;;7.22;;
55328;SDS011;41205;44.264;19.884;2023-07-08T02:18:40;10.98;;;7.18;;
55328;SDS011;41205;44.264;19.884;2023-07-08T02:21:08;12.98;;;7.57;;
55328;SDS011;41205;44.264;19.884;2023-07-08T02:23:34;12.82;;;6.70;;
55328;SDS011;41205;44.264;19.884;2023-07-08T02:25:59;11.93;;;6.80;;
55328;SDS011;41205;44.264;19.884;2023-07-08T02:28:25;8.68;;;6.97;;
55328;SDS011;41205;44.264;19.884;2023-07-08T02:30:51;11.75;;;7.65;;
55328;SDS011;41205;44.264;19.884;2023-07-08T02:33:17;9.38;;;6.78;;
55328;SDS011;41205;44.264;19.884;2023-07-08T02:35:42;10.55;;;6.57;;
55328;SDS011;41205;44.264;19.884;2023-07-08T02:38:09;9.05;;;6.95;;
55328;SDS011;41205;44.264;19.884;2023-07-08T02:40:35;18.27;;;7.80;;
55328;SDS011;41205;44.264;19.884;2023-07-08T02:43:00;11.57;;;7.43;;
55328;SDS011;41205;44.264;19.884;2023-07-08T02:45:26;10.25;;;6.45;;
55328;SDS011;41205;44.264;19.884;2023-07-08T02:47:52;12.70;;;7.18;;
55328;SDS011;41205;44.264;19.884;2023-07-08T02:50:17;11.52;;;7.60;;
55328;SDS011;41205;44.264;19.884;2023-07-08T02:52:44;10.45;;;7.40;;
55328;SDS011;41205;44.264;19.884;2023-07-08T02:55:09;11.82;;;7.57;;
55328;SDS011;41205;44.264;19.884;2023-07-08T02:57:35;8.23;;;6.20;;
55328;SDS011;41205;44.264;19.884;2023-07-08T03:00:01;9.50;;;7.15;;
55328;SDS011;41205;44.264;19.884;2023-07-08T03:02:29;8.80;;;6.50;;
55328;SDS011;41205;44.264;19.884;2023-07-08T03:04:55;11.00;;;6.82;;
55328;SDS011;41205;44.264;19.884;2023-07-08T03:07:24;10.60;;;6.78;;
55328;SDS011;41205;44.264;19.884;2023-07-08T03:09:49;8.68;;;6.45;;
55328;SDS011;41205;44.264;19.884;2023-07-08T03:12:15;10.57;;;7.05;;
55328;SDS011;41205;44.264;19.884;2023-07-08T03:14:41;9.98;;;6.97;;
55328;SDS011;41205;44.264;19.884;2023-07-08T03:17:07;10.02;;;6.28;;
55328;SDS011;41205;44.264;19.884;2023-07-08T03:19:32;12.27;;;6.50;;
55328;SDS011;41205;44.264;19.884;2023-07-08T03:21:58;8.75;;;6.32;;
55328;SDS011;41205;44.264;19.884;2023-07-08T03:24:24;13.23;;;7.25;;
55328;SDS011;41205;44.264;19.884;2023-07-08T03:26:49;7.78;;;6.93;;
55328;SDS011;41205;44.264;19.884;2023-07-08T03:29:19;10.27;;;7.10;;
55328;SDS011;41205;44.264;19.884;2023-07-08T03:31:46;10.90;;;6.40;;
55328;SDS011;41205;44.264;19.884;2023-07-08T03:34:12;9.98;;;6.82;;
55328;SDS011;41205;44.264;19.884;2023-07-08T03:36:49;9.02;;;7.22;;
55328;SDS011;41205;44.264;19.884;2023-07-08T03:39:16;10.35;;;7.43;;
55328;SDS011;41205;44.264;19.884;2023-07-08T03:41:47;14.20;;;7.88;;
55328;SDS011;41205;44.264;19.884;2023-07-08T03:44:13;15.02;;;7.60;;
55328;SDS011;41205;44.264;19.884;2023-07-08T03:46:41;10.73;;;7.63;;
55328;SDS011;41205;44.264;19.884;2023-07-08T03:49:08;10.38;;;6.72;;
55328;SDS011;41205;44.264;19.884;2023-07-08T03:51:35;11.32;;;7.07;;
55328;SDS011;41205;44.264;19.884;2023-07-08T03:54:03;11.27;;;7.57;;
55328;SDS011;41205;44.264;19.884;2023-07-08T03:56:30;10.75;;;7.47;;
55328;SDS011;41205;44.264;19.884;2023-07-08T03:58:56;11.25;;;7.88;;
55328;SDS011;41205;44.264;19.884;2023-07-08T04:01:22;11.07;;;6.80;;
55328;SDS011;41205;44.264;19.884;2023-07-08T04:03:53;13.45;;;7.25;;
55328;SDS011;41205;44.264;19.884;2023-07-08T04:06:20;11.13;;;7.40;;
55328;SDS011;41205;44.264;19.884;2023-07-08T04:08:47;10.80;;;7.30;;
55328;SDS011;41205;44.264;19.884;2023-07-08T04:11:13;11.73;;;6.88;;
55328;SDS011;41205;44.264;19.884;2023-07-08T04:13:40;9.63;;;6.65;;
55328;SDS011;41205;44.264;19.884;2023-07-08T04:16:08;12.50;;;6.75;;
55328;SDS011;41205;44.264;19.884;2023-07-08T04:18:44;11.23;;;6.50;;
55328;SDS011;41205;44.264;19.884;2023-07-08T04:21:10;10.38;;;7.03;;
55328;SDS011;41205;44.264;19.884;2023-07-08T04:23:36;9.82;;;6.95;;
55328;SDS011;41205;44.264;19.884;2023-07-08T04:26:02;11.07;;;6.97;;
55328;SDS011;41205;44.264;19.884;2023-07-08T04:28:27;11.52;;;7.28;;
55328;SDS011;41205;44.264;19.884;2023-07-08T04:30:53;9.73;;;7.00;;
55328;SDS011;41205;44.264;19.884;2023-07-08T04:33:19;9.82;;;6.53;;
55328;SDS011;41205;44.264;19.884;2023-07-08T04:35:44;14.02;;;7.53;;
55328;SDS011;41205;44.264;19.884;2023-07-08T04:38:18;14.65;;;6.45;;
55328;SDS011;41205;44.264;19.884;2023-07-08T04:40:46;9.52;;;7.00;;
55328;SDS011;41205;44.264;19.884;2023-07-08T04:43:16;10.10;;;6.30;;
55328;SDS011;41205;44.264;19.884;2023-07-08T04:45:42;12.38;;;7.20;;
55328;SDS011;41205;44.264;19.884;2023-07-08T04:48:13;8.18;;;6.75;;
55328;SDS011;41205;44.264;19.884;2023-07-08T04:50:43;12.32;;;7.85;;
55328;SDS011;41205;44.264;19.884;2023-07-08T04:53:10;8.75;;;7.13;;
55328;SDS011;41205;44.264;19.884;2023-07-08T04:58:32;12.13;;;8.15;;
55328;SDS011;41205;44.264;19.884;2023-07-08T05:00:58;8.45;;;6.40;;
55328;SDS011;41205;44.264;19.884;2023-07-08T05:03:24;8.25;;;7.25;;
55328;SDS011;41205;44.264;19.884;2023-07-08T05:05:49;12.65;;;7.85;;
55328;SDS011;41205;44.264;19.884;2023-07-08T05:08:15;9.40;;;8.23;;
55328;SDS011;41205;44.264;19.884;2023-07-08T05:10:42;13.75;;;8.80;;
55328;SDS011;41205;44.264;19.884;2023-07-08T05:13:08;10.18;;;8.55;;
55328;SDS011;41205;44.264;19.884;2023-07-08T05:15:33;10.00;;;8.07;;
55328;SDS011;41205;44.264;19.884;2023-07-08T05:18:00;9.40;;;8.45;;
55328;SDS011;41205;44.264;19.884;2023-07-08T05:20:26;9.55;;;8.55;;
55328;SDS011;41205;44.264;19.884;2023-07-08T05:22:51;9.38;;;8.40;;
55328;SDS011;41205;44.264;19.884;2023-07-08T05:25:17;8.93;;;8.10;;
55328;SDS011;41205;44.264;19.884;2023-07-08T05:27:45;9.65;;;8.63;;
55328;SDS011;41205;44.264;19.884;2023-07-08T05:30:13;10.63;;;8.45;;
55328;SDS011;41205;44.264;19.884;2023-07-08T05:32:41;9.75;;;8.85;;
55328;SDS011;41205;44.264;19.884;2023-07-08T05:35:07;10.07;;;9.07;;
55328;SDS011;41205;44.264;19.884;2023-07-08T05:37:33;10.85;;;9.63;;
55328;SDS011;41205;44.264;19.884;2023-07-08T05:39:59;10.65;;;9.55;;
55328;SDS011;41205;44.264;19.884;2023-07-08T05:42:27;11.25;;;10.25;;
55328;SDS011;41205;44.264;19.884;2023-07-08T05:44:53;12.02;;;9.95;;
55328;SDS011;41205;44.264;19.884;2023-07-08T05:47:20;11.68;;;10.02;;
55328;SDS011;41205;44.264;19.884;2023-07-08T05:49:46;11.70;;;10.68;;
55328;SDS011;41205;44.264;19.884;2023-07-08T05:52:12;12.40;;;11.13;;
55328;SDS011;41205;44.264;19.884;2023-07-08T05:54:39;11.55;;;10.35;;
55328;SDS011;41205;44.264;19.884;2023-07-08T05:57:06;12.57;;;11.27;;
55328;SDS011;41205;44.264;19.884;2023-07-08T05:59:34;11.40;;;10.40;;
55328;SDS011;41205;44.264;19.884;2023-07-08T06:02:00;11.52;;;10.52;;
55328;SDS011;41205;44.264;19.884;2023-07-08T06:04:27;12.35;;;11.25;;
55328;SDS011;41205;44.264;19.884;2023-07-08T06:06:53;12.50;;;11.40;;
55328;SDS011;41205;44.264;19.884;2023-07-08T06:09:19;13.20;;;11.88;;
55328;SDS011;41205;44.264;19.884;2023-07-08T06:11:44;11.38;;;10.55;;
55328;SDS011;41205;44.264;19.884;2023-07-08T06:14:10;13.00;;;12.00;;
55328;SDS011;41205;44.264;19.884;2023-07-08T06:16:36;12.23;;;11.23;;
55328;SDS011;41205;44.264;19.884;2023-07-08T06:19:01;13.02;;;11.77;;
55328;SDS011;41205;44.264;19.884;2023-07-08T06:21:27;13.32;;;12.10;;
55328;SDS011;41205;44.264;19.884;2023-07-08T06:23:53;13.52;;;12.40;;
55328;SDS011;41205;44.264;19.884;2023-07-08T06:26:19;14.48;;;13.18;;
55328;SDS011;41205;44.264;19.884;2023-07-08T06:28:44;12.75;;;11.75;;
55328;SDS011;41205;44.264;19.884;2023-07-08T06:31:10;13.27;;;12.07;;
55328;SDS011;41205;44.264;19.884;2023-07-08T06:33:36;15.60;;;14.50;;
55328;SDS011;41205;44.264;19.884;2023-07-08T06:36:01;13.05;;;11.85;;
55328;SDS011;41205;44.264;19.884;2023-07-08T06:38:27;15.20;;;14.18;;
55328;SDS011;41205;44.264;19.884;2023-07-08T06:40:53;13.43;;;12.38;;
55328;SDS011;41205;44.264;19.884;2023-07-08T06:43:19;13.18;;;12.18;;
55328;SDS011;41205;44.264;19.884;2023-07-08T06:45:44;14.38;;;13.18;;
55328;SDS011;41205;44.264;19.884;2023-07-08T06:48:10;15.82;;;14.30;;
55328;SDS011;41205;44.264;19.884;2023-07-08T06:50:37;13.80;;;12.80;;
55328;SDS011;41205;44.264;19.884;2023-07-08T06:53:03;15.27;;;13.80;;
55328;SDS011;41205;44.264;19.884;2023-07-08T06:55:29;14.40;;;12.98;;
55328;SDS011;41205;44.264;19.884;2023-07-08T06:57:55;13.43;;;12.52;;
55328;SDS011;41205;44.264;19.884;2023-07-08T07:00:21;14.13;;;12.93;;
55328;SDS011;41205;44.264;19.884;2023-07-08T07:02:46;15.00;;;13.63;;
55328;SDS011;41205;44.264;19.884;2023-07-08T07:05:12;13.95;;;12.68;;
55328;SDS011;41205;44.264;19.884;2023-07-08T07:07:38;14.07;;;13.13;;
55328;SDS011;41205;44.264;19.884;2023-07-08T07:10:03;14.77;;;13.63;;
55328;SDS011;41205;44.264;19.884;2023-07-08T07:12:30;14.23;;;13.07;;
55328;SDS011;41205;44.264;19.884;2023-07-08T07:14:56;14.15;;;12.95;;
55328;SDS011;41205;44.264;19.884;2023-07-08T07:17:22;14.73;;;13.52;;
55328;SDS011;41205;44.264;19.884;2023-07-08T07:19:49;14.52;;;13.32;;
55328;SDS011;41205;44.264;19.884;2023-07-08T07:22:15;14.48;;;13.38;;
55328;SDS011;41205;44.264;19.884;2023-07-08T07:24:41;13.57;;;12.63;;
55328;SDS011;41205;44.264;19.884;2023-07-08T07:27:07;15.82;;;13.95;;
55328;SDS011;41205;44.264;19.884;2023-07-08T07:29:49;14.05;;;13.02;;
55328;SDS011;41205;44.264;19.884;2023-07-08T07:32:16;14.77;;;13.35;;
55328;SDS011;41205;44.264;19.884;2023-07-08T07:34:46;14.63;;;13.20;;
55328;SDS011;41205;44.264;19.884;2023-07-08T07:37:13;13.32;;;12.23;;
55328;SDS011;41205;44.264;19.884;2023-07-08T07:39:40;13.82;;;12.70;;
55328;SDS011;41205;44.264;19.884;2023-07-08T07:42:06;12.95;;;11.88;;
55328;SDS011;41205;44.264;19.884;2023-07-08T07:44:32;13.38;;;12.32;;
55328;SDS011;41205;44.264;19.884;2023-07-08T07:46:58;13.50;;;12.32;;
55328;SDS011;41205;44.264;19.884;2023-07-08T07:49:24;14.27;;;13.15;;
55328;SDS011;41205;44.264;19.884;2023-07-08T07:51:49;15.30;;;13.85;;
55328;SDS011;41205;44.264;19.884;2023-07-08T07:54:15;14.25;;;13.05;;
55328;SDS011;41205;44.264;19.884;2023-07-08T07:56:41;14.77;;;13.50;;
55328;SDS011;41205;44.264;19.884;2023-07-08T07:59:07;13.57;;;12.68;;
55328;SDS011;41205;44.264;19.884;2023-07-08T08:01:33;14.60;;;13.38;;
55328;SDS011;41205;44.264;19.884;2023-07-08T08:03:58;15.02;;;13.82;;
55328;SDS011;41205;44.264;19.884;2023-07-08T08:06:24;12.63;;;11.73;;
55328;SDS011;41205;44.264;19.884;2023-07-08T08:08:50;13.75;;;12.50;;
55328;SDS011;41205;44.264;19.884;2023-07-08T08:11:16;12.88;;;11.88;;
55328;SDS011;41205;44.264;19.884;2023-07-08T08:13:42;13.68;;;12.43;;
55328;SDS011;41205;44.264;19.884;2023-07-08T08:16:08;12.48;;;11.52;;
55328;SDS011;41205;44.264;19.884;2023-07-08T08:18:33;12.90;;;11.88;;
55328;SDS011;41205;44.264;19.884;2023-07-08T08:20:59;12.57;;;11.20;;
55328;SDS011;41205;44.264;19.884;2023-07-08T08:23:25;10.43;;;9.52;;
55328;SDS011;41205;44.264;19.884;2023-07-08T08:25:51;8.93;;;8.07;;
55328;SDS011;41205;44.264;19.884;2023-07-08T08:28:17;10.20;;;8.55;;
55328;SDS011;41205;44.264;19.884;2023-07-08T08:30:46;11.70;;;8.27;;
55328;SDS011;41205;44.264;19.884;2023-07-08T08:33:15;8.52;;;7.72;;
55328;SDS011;41205;44.264;19.884;2023-07-08T08:35:42;8.13;;;7.40;;
55328;SDS011;41205;44.264;19.884;2023-07-08T08:38:08;8.45;;;7.68;;
55328;SDS011;41205;44.264;19.884;2023-07-08T08:40:34;8.45;;;7.60;;
55328;SDS011;41205;44.264;19.884;2023-07-08T08:45:27;8.43;;;7.63;;
55328;SDS011;41205;44.264;19.884;2023-07-08T08:48:02;9.60;;;6.97;;
55328;SDS011;41205;44.264;19.884;2023-07-08T08:52:59;9.88;;;7.00;;
55328;SDS011;41205;44.264;19.884;2023-07-08T08:55:30;8.63;;;6.90;;
55328;SDS011;41205;44.264;19.884;2023-07-08T08:58:02;14.13;;;7.13;;
55328;SDS011;41205;44.264;19.884;2023-07-08T09:00:53;11.23;;;7.17;;
55328;SDS011;41205;44.264;19.884;2023-07-08T09:03:29;7.65;;;6.68;;
55328;SDS011;41205;44.264;19.884;2023-07-08T09:06:28;7.38;;;6.38;;
55328;SDS011;41205;44.264;19.884;2023-07-08T09:08:56;8.02;;;6.88;;
55328;SDS011;41205;44.264;19.884;2023-07-08T09:22:46;7.75;;;6.50;;
55328;SDS011;41205;44.264;19.884;2023-07-08T09:27:41;6.97;;;6.28;;
55328;SDS011;41205;44.264;19.884;2023-07-08T09:30:10;7.70;;;6.00;;
55328;SDS011;41205;44.264;19.884;2023-07-08T09:32:39;11.38;;;6.38;;
55328;SDS011;41205;44.264;19.884;2023-07-08T09:35:06;6.93;;;5.97;;
55328;SDS011;41205;44.264;19.884;2023-07-08T09:37:34;9.60;;;6.90;;
55328;SDS011;41205;44.264;19.884;2023-07-08T09:40:22;10.43;;;6.40;;
55328;SDS011;41205;44.264;19.884;2023-07-08T09:42:58;7.25;;;6.22;;
55328;SDS011;41205;44.264;19.884;2023-07-08T09:45:27;8.57;;;6.47;;
55328;SDS011;41205;44.264;19.884;2023-07-08T09:47:57;8.10;;;6.45;;
55328;SDS011;41205;44.264;19.884;2023-07-08T09:50:27;9.25;;;6.18;;
55328;SDS011;41205;44.264;19.884;2023-07-08T09:52:57;8.52;;;6.22;;
55328;SDS011;41205;44.264;19.884;2023-07-08T09:55:26;9.20;;;6.38;;
55328;SDS011;41205;44.264;19.884;2023-07-08T09:57:53;8.07;;;6.13;;
55328;SDS011;41205;44.264;19.884;2023-07-08T10:00:55;7.00;;;5.82;;
55328;SDS011;41205;44.264;19.884;2023-07-08T10:05:47;6.97;;;6.10;;
55328;SDS011;41205;44.264;19.884;2023-07-08T10:10:45;6.97;;;5.60;;
55328;SDS011;41205;44.264;19.884;2023-07-08T10:15:57;6.85;;;5.97;;
55328;SDS011;41205;44.264;19.884;2023-07-08T10:18:34;10.93;;;6.53;;
55328;SDS011;41205;44.264;19.884;2023-07-08T10:21:06;8.45;;;5.80;;
55328;SDS011;41205;44.264;19.884;2023-07-08T10:23:43;7.50;;;5.90;;
55328;SDS011;41205;44.264;19.884;2023-07-08T10:26:28;6.63;;;5.22;;
55328;SDS011;41205;44.264;19.884;2023-07-08T10:46:26;8.52;;;5.50;;
55328;SDS011;41205;44.264;19.884;2023-07-08T10:51:39;6.57;;;5.88;;
55328;SDS011;41205;44.264;19.884;2023-07-08T11:05:42;7.30;;;5.13;;
55328;SDS011;41205;44.264;19.884;2023-07-08T11:13:56;5.90;;;4.88;;
55328;SDS011;41205;44.264;19.884;2023-07-08T11:19:57;7.10;;;5.20;;
55328;SDS011;41205;44.264;19.884;2023-07-08T11:22:29;8.00;;;5.63;;
55328;SDS011;41205;44.264;19.884;2023-07-08T11:24:58;5.43;;;4.63;;
55328;SDS011;41205;44.264;19.884;2023-07-08T11:27:37;10.43;;;4.40;;
55328;SDS011;41205;44.264;19.884;2023-07-08T11:30:12;7.65;;;5.03;;
55328;SDS011;41205;44.264;19.884;2023-07-08T11:32:41;9.30;;;5.13;;
55328;SDS011;41205;44.264;19.884;2023-07-08T11:35:17;5.78;;;4.65;;
55328;SDS011;41205;44.264;19.884;2023-07-08T11:37:52;7.32;;;4.72;;
55328;SDS011;41205;44.264;19.884;2023-07-08T11:40:19;6.72;;;5.55;;
55328;SDS011;41205;44.264;19.884;2023-07-08T11:42:48;6.20;;;4.95;;
55328;SDS011;41205;44.264;19.884;2023-07-08T11:47:47;6.93;;;5.32;;
55328;SDS011;41205;44.264;19.884;2023-07-08T11:50:24;7.75;;;5.60;;
55328;SDS011;41205;44.264;19.884;2023-07-08T11:52:58;6.43;;;4.97;;
55328;SDS011;41205;44.264;19.884;2023-07-08T11:55:35;8.90;;;4.95;;
55328;SDS011;41205;44.264;19.884;2023-07-08T11:58:08;7.35;;;4.85;;
55328;SDS011;41205;44.264;19.884;2023-07-08T12:01:04;6.38;;;5.18;;
55328;SDS011;41205;44.264;19.884;2023-07-08T12:03:51;6.15;;;4.78;;
55328;SDS011;41205;44.264;19.884;2023-07-08T12:06:42;8.55;;;5.10;;
55328;SDS011;41205;44.264;19.884;2023-07-08T12:09:13;6.50;;;4.63;;
55328;SDS011;41205;44.264;19.884;2023-07-08T12:11:40;10.45;;;4.97;;
55328;SDS011;41205;44.264;19.884;2023-07-08T12:14:10;8.82;;;5.00;;
55328;SDS011;41205;44.264;19.884;2023-07-08T12:16:36;6.43;;;5.07;;
55328;SDS011;41205;44.264;19.884;2023-07-08T12:19:02;5.97;;;4.57;;
55328;SDS011;41205;44.264;19.884;2023-07-08T12:21:30;5.85;;;4.95;;
55328;SDS011;41205;44.264;19.884;2023-07-08T12:24:03;10.25;;;5.70;;
55328;SDS011;41205;44.264;19.884;2023-07-08T12:26:31;8.57;;;5.45;;
55328;SDS011;41205;44.264;19.884;2023-07-08T12:28:58;7.03;;;5.28;;
55328;SDS011;41205;44.264;19.884;2023-07-08T12:31:23;6.75;;;4.75;;
55328;SDS011;41205;44.264;19.884;2023-07-08T12:33:50;7.82;;;5.07;;
55328;SDS011;41205;44.264;19.884;2023-07-08T12:36:21;12.82;;;4.75;;
55328;SDS011;41205;44.264;19.884;2023-07-08T12:38:50;6.85;;;4.97;;
55328;SDS011;41205;44.264;19.884;2023-07-08T12:41:18;6.13;;;5.13;;
55328;SDS011;41205;44.264;19.884;2023-07-08T12:43:55;7.15;;;5.55;;
55328;SDS011;41205;44.264;19.884;2023-07-08T12:46:22;8.85;;;4.93;;
55328;SDS011;41205;44.264;19.884;2023-07-08T12:48:49;6.35;;;4.72;;
55328;SDS011;41205;44.264;19.884;2023-07-08T12:51:20;6.05;;;5.22;;
55328;SDS011;41205;44.264;19.884;2023-07-08T12:53:48;6.72;;;5.05;;
55328;SDS011;41205;44.264;19.884;2023-07-08T12:56:15;9.75;;;5.65;;
55328;SDS011;41205;44.264;19.884;2023-07-08T12:58:43;7.10;;;4.95;;
55328;SDS011;41205;44.264;19.884;2023-07-08T13:01:19;8.60;;;4.78;;
55328;SDS011;41205;44.264;19.884;2023-07-08T13:03:47;5.65;;;5.00;;
55328;SDS011;41205;44.264;19.884;2023-07-08T13:06:16;9.48;;;5.10;;
55328;SDS011;41205;44.264;19.884;2023-07-08T13:08:45;9.75;;;5.32;;
55328;SDS011;41205;44.264;19.884;2023-07-08T13:11:13;7.07;;;5.10;;
55328;SDS011;41205;44.264;19.884;2023-07-08T13:16:37;7.32;;;4.40;;
55328;SDS011;41205;44.264;19.884;2023-07-08T13:19:03;6.13;;;5.10;;
55328;SDS011;41205;44.264;19.884;2023-07-08T13:21:29;7.80;;;5.10;;
55328;SDS011;41205;44.264;19.884;2023-07-08T13:23:57;6.38;;;5.07;;
55328;SDS011;41205;44.264;19.884;2023-07-08T13:26:24;7.95;;;4.80;;
55328;SDS011;41205;44.264;19.884;2023-07-08T13:28:59;6.43;;;4.50;;
55328;SDS011;41205;44.264;19.884;2023-07-08T13:31:31;5.38;;;4.60;;
55328;SDS011;41205;44.264;19.884;2023-07-08T13:34:13;7.70;;;6.47;;
55328;SDS011;41205;44.264;19.884;2023-07-08T13:36:45;6.97;;;5.57;;
55328;SDS011;41205;44.264;19.884;2023-07-08T13:39:15;8.13;;;5.85;;
55328;SDS011;41205;44.264;19.884;2023-07-08T13:41:45;7.97;;;5.45;;
55328;SDS011;41205;44.264;19.884;2023-07-08T13:44:11;7.68;;;4.95;;
55328;SDS011;41205;44.264;19.884;2023-07-08T13:46:38;5.70;;;4.72;;
55328;SDS011;41205;44.264;19.884;2023-07-08T13:54:38;8.10;;;5.72;;
55328;SDS011;41205;44.264;19.884;2023-07-08T13:57:11;7.30;;;5.57;;
55328;SDS011;41205;44.264;19.884;2023-07-08T13:59:40;7.20;;;5.15;;
55328;SDS011;41205;44.264;19.884;2023-07-08T14:02:28;7.43;;;5.60;;
55328;SDS011;41205;44.264;19.884;2023-07-08T14:04:54;6.68;;;5.68;;
55328;SDS011;41205;44.264;19.884;2023-07-08T14:07:23;6.20;;;5.57;;
55328;SDS011;41205;44.264;19.884;2023-07-08T14:09:51;6.10;;;5.38;;
55328;SDS011;41205;44.264;19.884;2023-07-08T14:12:17;7.15;;;5.35;;
55328;SDS011;41205;44.264;19.884;2023-07-08T14:14:43;8.35;;;5.43;;
55328;SDS011;41205;44.264;19.884;2023-07-08T14:17:14;8.13;;;5.90;;
55328;SDS011;41205;44.264;19.884;2023-07-08T14:19:44;8.88;;;6.05;;
55328;SDS011;41205;44.264;19.884;2023-07-08T14:24:41;6.03;;;5.43;;
55328;SDS011;41205;44.264;19.884;2023-07-08T14:27:08;7.35;;;4.95;;
55328;SDS011;41205;44.264;19.884;2023-07-08T14:29:39;8.57;;;5.72;;
55328;SDS011;41205;44.264;19.884;2023-07-08T14:32:09;7.90;;;6.05;;
55328;SDS011;41205;44.264;19.884;2023-07-08T14:34:55;6.03;;;5.22;;
55328;SDS011;41205;44.264;19.884;2023-07-08T14:37:22;9.45;;;5.38;;
55328;SDS011;41205;44.264;19.884;2023-07-08T14:39:48;8.05;;;5.57;;
55328;SDS011;41205;44.264;19.884;2023-07-08T14:42:15;7.88;;;5.18;;
55328;SDS011;41205;44.264;19.884;2023-07-08T14:44:43;8.30;;;5.57;;
55328;SDS011;41205;44.264;19.884;2023-07-08T14:47:12;9.02;;;6.15;;
55328;SDS011;41205;44.264;19.884;2023-07-08T14:49:39;8.05;;;5.30;;
55328;SDS011;41205;44.264;19.884;2023-07-08T14:52:05;7.35;;;5.20;;
55328;SDS011;41205;44.264;19.884;2023-07-08T14:54:31;7.00;;;5.97;;
55328;SDS011;41205;44.264;19.884;2023-07-08T14:56:57;6.97;;;5.47;;
55328;SDS011;41205;44.264;19.884;2023-07-08T14:59:25;6.18;;;5.45;;
55328;SDS011;41205;44.264;19.884;2023-07-08T15:01:54;9.38;;;6.20;;
55328;SDS011;41205;44.264;19.884;2023-07-08T15:04:21;8.63;;;5.82;;
55328;SDS011;41205;44.264;19.884;2023-07-08T15:06:47;6.72;;;5.57;;
55328;SDS011;41205;44.264;19.884;2023-07-08T15:09:14;9.77;;;5.63;;
55328;SDS011;41205;44.264;19.884;2023-07-08T15:11:42;6.18;;;5.13;;
55328;SDS011;41205;44.264;19.884;2023-07-08T15:14:18;7.70;;;5.82;;
55328;SDS011;41205;44.264;19.884;2023-07-08T15:16:48;13.57;;;5.75;;
55328;SDS011;41205;44.264;19.884;2023-07-08T15:19:15;6.80;;;5.55;;
55328;SDS011;41205;44.264;19.884;2023-07-08T15:21:41;6.57;;;5.60;;
55328;SDS011;41205;44.264;19.884;2023-07-08T15:24:08;8.10;;;5.65;;
55328;SDS011;41205;44.264;19.884;2023-07-08T15:26:41;7.55;;;5.85;;
55328;SDS011;41205;44.264;19.884;2023-07-08T15:29:20;6.50;;;5.30;;
55328;SDS011;41205;44.264;19.884;2023-07-08T15:31:47;11.32;;;6.05;;
55328;SDS011;41205;44.264;19.884;2023-07-08T15:34:20;10.00;;;5.68;;
55328;SDS011;41205;44.264;19.884;2023-07-08T15:36:46;6.88;;;5.28;;
55328;SDS011;41205;44.264;19.884;2023-07-08T15:39:13;8.88;;;5.68;;
55328;SDS011;41205;44.264;19.884;2023-07-08T15:41:39;6.82;;;5.38;;
55328;SDS011;41205;44.264;19.884;2023-07-08T15:44:09;6.53;;;5.93;;
55328;SDS011;41205;44.264;19.884;2023-07-08T15:46:43;9.30;;;5.47;;
55328;SDS011;41205;44.264;19.884;2023-07-08T15:49:17;6.40;;;5.32;;
55328;SDS011;41205;44.264;19.884;2023-07-08T15:51:48;9.63;;;5.65;;
55328;SDS011;41205;44.264;19.884;2023-07-08T15:54:14;5.63;;;5.07;;
55328;SDS011;41205;44.264;19.884;2023-07-08T15:56:39;8.95;;;5.38;;
55328;SDS011;41205;44.264;19.884;2023-07-08T15:59:09;8.80;;;5.82;;
55328;SDS011;41205;44.264;19.884;2023-07-08T16:01:42;16.90;;;5.82;;